Time;durP1;ratioP1;P1;durP2;ratioP2;P2;SDS_P1;SDS_P2;PMS_P1;PMS_P2;Temp;Humidity;BMP_temperature;BMP_pressure;BME280_temperature;BME280_humidity;BME280_pressure;Samples;Min_cycle;Max_cycle;Signal;HPM_P1;HPM_P2
2022/10/13 00:01:12;;;;;;;;;;;11.80;99.90;;;;;;5022099;28;19913;-59
2022/10/13 00:03:38;;;;;;;;;;;11.90;99.90;;;;;;5088366;27;19929;-58
2022/10/13 00:06:08;;;;;;;;;;;11.90;99.90;;;;;;5023772;28;20007;-57
2022/10/13 00:08:33;;;;;;;;;;;11.90;99.90;;;;;;5079440;27;20006;-58
2022/10/13 00:10:59;;;;;;;;;;;11.90;99.90;;;;;;5031560;27;19919;-59
2022/10/13 00:13:26;;;;;;;;;;;11.80;99.90;;;;;;5065307;27;19964;-57
2022/10/13 00:15:51;;;;;;;;;;;11.80;99.90;;;;;;5043865;27;19909;-59
2022/10/13 00:18:17;;;;;;;;;;;11.80;99.90;;;;;;5052100;27;19915;-57
2022/10/13 00:20:47;;;;;;;;;;;11.90;99.90;;;;;;5123037;27;19907;-56
2022/10/13 00:23:13;;;;;;;;;;;11.80;99.90;;;;;;5106183;27;19907;-57
2022/10/13 00:25:42;;;;;;;;;;;11.80;99.90;;;;;;5081856;27;19907;-58
2022/10/13 00:28:08;;;;;;;;;;;11.80;99.90;;;;;;5117809;27;19911;-59
2022/10/13 00:30:34;;;;;;;;;;;11.70;99.90;;;;;;5069197;27;20301;-59
2022/10/13 00:32:59;;;;;;;;;;;11.70;99.90;;;;;;5119707;27;20400;-60
2022/10/13 00:35:25;;;;;;;;;;;11.80;99.90;;;;;;5067491;27;19911;-60
2022/10/13 00:37:52;;;;;;;;;;;11.80;99.90;;;;;;5124912;27;20499;-59
2022/10/13 00:40:17;;;;;;;;;;;11.80;99.90;;;;;;5061836;27;19907;-59
2022/10/13 00:42:43;;;;;;;;;;;11.80;99.90;;;;;;5126875;27;19914;-58
2022/10/13 00:45:08;;;;;;;;;;;11.80;99.90;;;;;;5059811;27;19948;-57
2022/10/13 00:47:35;;;;;;;;;;;11.90;99.90;;;;;;5127270;27;19950;-58
2022/10/13 00:50:01;;;;;;;;;;;11.90;99.90;;;;;;5066244;27;20271;-57
2022/10/13 00:52:28;;;;;;;;;;;12.00;99.90;;;;;;5121010;27;20392;-58
2022/10/13 00:54:54;;;;;;;;;;;12.00;99.90;;;;;;5078960;27;19916;-59
2022/10/13 00:57:20;;;;;;;;;;;12.00;99.90;;;;;;5108300;27;19911;-59
2022/10/13 00:59:47;;;;;;;;;;;12.00;99.90;;;;;;5091540;27;19913;-57
2022/10/13 01:02:12;;;;;;;;;;;12.10;99.90;;;;;;5095490;27;19950;-58
2022/10/13 01:04:42;;;;;;;;;;;12.10;99.90;;;;;;5104187;27;19999;-60
2022/10/13 01:07:08;;;;;;;;;;;12.00;99.90;;;;;;5085200;27;19916;-59
2022/10/13 01:09:36;;;;;;;;;;;12.10;99.90;;;;;;5115546;27;19914;-58
2022/10/13 01:12:20;;;;;;;;;;;12.10;99.90;;;;;;5072666;27;19923;-56
2022/10/13 01:14:53;;;;;;;;;;;12.10;99.90;;;;;;5114423;27;19918;-58
2022/10/13 01:17:35;;;;;;;;;;;12.10;99.90;;;;;;5077991;27;20380;-59
2022/10/13 01:20:04;;;;;;;;;;;12.10;99.90;;;;;;5094937;27;19909;-60
2022/10/13 01:22:48;;;;;;;;;;;12.10;99.90;;;;;;5101674;27;19911;-57
2022/10/13 01:25:32;;;;;;;;;;;12.10;99.90;;;;;;5108063;27;19938;-58
2022/10/13 01:28:03;;;;;;;;;;;12.10;99.90;;;;;;5091216;27;19907;-58
2022/10/13 01:30:33;;;;;;;;;;;12.20;99.90;;;;;;5104909;27;19954;-58
2022/10/13 01:33:03;;;;;;;;;;;12.20;99.90;;;;;;5083779;27;19973;-59
2022/10/13 01:35:42;;;;;;;;;;;12.20;99.90;;;;;;5112661;27;19907;-54
2022/10/13 01:38:11;;;;;;;;;;;12.20;99.90;;;;;;5082359;27;19907;-60
2022/10/13 01:40:36;;;;;;;;;;;12.20;99.90;;;;;;5113215;27;20366;-58
2022/10/13 01:43:16;;;;;;;;;;;12.10;99.90;;;;;;5072086;27;19903;-59
2022/10/13 01:45:46;;;;;;;;;;;12.10;99.90;;;;;;5118224;27;19907;-58
2022/10/13 01:48:12;;;;;;;;;;;12.20;99.90;;;;;;5069595;27;19977;-59
2022/10/13 01:50:38;;;;;;;;;;;12.20;99.90;;;;;;5117871;27;20651;-59
2022/10/13 01:53:04;;;;;;;;;;;12.20;99.90;;;;;;5067230;27;19916;-58
2022/10/13 01:55:30;;;;;;;;;;;12.20;99.90;;;;;;5121374;27;20402;-60
2022/10/13 01:57:56;;;;;;;;;;;12.20;99.90;;;;;;5065106;27;20011;-60
2022/10/13 02:00:22;;;;;;;;;;;12.20;99.90;;;;;;5124178;27;19903;-58
2022/10/13 02:02:47;;;;;;;;;;;12.30;99.90;;;;;;5059538;27;19931;-58
2022/10/13 02:05:19;;;;;;;;;;;12.30;99.90;;;;;;5125034;27;20442;-59
2022/10/13 02:07:53;;;;;;;;;;;12.30;99.90;;;;;;5058979;27;19947;-59
2022/10/13 02:10:39;;;;;;;;;;;12.30;99.90;;;;;;5125096;27;19918;-58
2022/10/13 02:13:05;;;;;;;;;;;12.30;99.90;;;;;;5058638;27;20049;-60
2022/10/13 02:15:36;;;;;;;;;;;12.30;99.90;;;;;;5124321;27;19915;-57
2022/10/13 02:18:03;;;;;;;;;;;12.40;99.90;;;;;;5062081;27;19909;-59
2022/10/13 02:20:29;;;;;;;;;;;12.40;99.90;;;;;;5061377;27;19916;-59
2022/10/13 02:22:57;;;;;;;;;;;12.40;99.90;;;;;;5071274;27;19907;-59
2022/10/13 02:25:23;;;;;;;;;;;12.40;99.90;;;;;;5032521;27;19944;-59
2022/10/13 02:27:49;;;;;;;;;;;12.40;99.90;;;;;;5059877;27;19958;-59
2022/10/13 02:30:22;;;;;;;;;;;12.40;99.90;;;;;;5046173;27;19961;-60
2022/10/13 02:32:48;;;;;;;;;;;12.40;99.90;;;;;;5051956;27;19921;-59
2022/10/13 02:35:13;;;;;;;;;;;12.40;99.90;;;;;;5054056;27;19909;-59
2022/10/13 02:37:39;;;;;;;;;;;12.40;99.90;;;;;;5037363;27;20016;-59
2022/10/13 02:40:05;;;;;;;;;;;12.40;99.90;;;;;;5068853;28;19909;-58
2022/10/13 02:42:30;;;;;;;;;;;12.30;99.90;;;;;;5027203;28;19909;-58
2022/10/13 02:44:56;;;;;;;;;;;12.40;99.90;;;;;;5078646;28;19909;-57
2022/10/13 02:47:21;;;;;;;;;;;12.40;99.90;;;;;;5027028;28;19923;-59
2022/10/13 02:49:46;;;;;;;;;;;12.30;99.90;;;;;;5078678;28;20008;-58
2022/10/13 02:52:12;;;;;;;;;;;12.30;99.90;;;;;;5021030;28;19928;-59
2022/10/13 02:54:38;;;;;;;;;;;12.30;99.90;;;;;;5089318;27;19913;-59
2022/10/13 02:57:03;;;;;;;;;;;12.30;99.90;;;;;;5023660;28;19934;-56
2022/10/13 02:59:34;;;;;;;;;;;12.30;99.90;;;;;;5089397;27;19934;-59
2022/10/13 03:02:00;;;;;;;;;;;12.30;99.90;;;;;;5020851;28;20372;-56
2022/10/13 03:04:25;;;;;;;;;;;12.40;99.90;;;;;;5080328;27;19918;-59
2022/10/13 03:06:51;;;;;;;;;;;12.30;99.90;;;;;;5033038;27;20404;-59
2022/10/13 03:09:16;;;;;;;;;;;12.40;99.90;;;;;;5075825;27;19918;-57
2022/10/13 03:11:42;;;;;;;;;;;12.40;99.90;;;;;;5046179;27;20359;-59
2022/10/13 03:14:07;;;;;;;;;;;12.40;99.90;;;;;;5051841;27;20005;-57
2022/10/13 03:16:33;;;;;;;;;;;12.40;99.90;;;;;;5060467;27;19960;-56
2022/10/13 03:18:58;;;;;;;;;;;12.40;99.90;;;;;;5037552;27;19908;-53
2022/10/13 03:21:23;;;;;;;;;;;12.40;99.90;;;;;;5028843;27;20020;-59
2022/10/13 03:23:49;;;;;;;;;;;12.50;99.90;;;;;;5044932;27;19958;-59
2022/10/13 03:26:15;;;;;;;;;;;12.50;99.90;;;;;;5068196;27;20552;-59
2022/10/13 03:28:40;;;;;;;;;;;12.50;99.90;;;;;;5122141;27;19907;-59
2022/10/13 03:31:07;;;;;;;;;;;12.50;99.90;;;;;;5068345;27;19918;-59
2022/10/13 03:33:33;;;;;;;;;;;12.50;99.90;;;;;;5127112;27;20383;-59
2022/10/13 03:36:03;;;;;;;;;;;12.50;99.90;;;;;;5062117;27;19913;-59
2022/10/13 03:38:29;;;;;;;;;;;12.50;99.90;;;;;;5126615;27;19908;-58
2022/10/13 03:40:54;;;;;;;;;;;12.50;99.90;;;;;;5061122;27;19931;-59
2022/10/13 03:43:20;;;;;;;;;;;12.50;99.90;;;;;;5127953;27;19911;-59
2022/10/13 03:45:58;;;;;;;;;;;12.50;99.90;;;;;;5073627;27;20009;-59
2022/10/13 03:48:24;;;;;;;;;;;12.50;99.90;;;;;;5126598;27;19998;-59
2022/10/13 03:50:49;;;;;;;;;;;12.50;99.90;;;;;;5107700;27;20067;-60
2022/10/13 03:53:15;;;;;;;;;;;12.50;99.90;;;;;;5037154;27;19924;-58
2022/10/13 03:55:40;;;;;;;;;;;12.50;99.90;;;;;;5059487;27;19911;-59
2022/10/13 03:58:06;;;;;;;;;;;12.50;99.90;;;;;;5052677;27;19909;-60
2022/10/13 04:00:33;;;;;;;;;;;12.50;99.90;;;;;;5044792;27;19911;-59
2022/10/13 04:03:01;;;;;;;;;;;12.50;99.90;;;;;;5064015;27;19985;-59
2022/10/13 04:05:27;;;;;;;;;;;12.50;99.90;;;;;;5034047;27;20289;-55
2022/10/13 04:07:52;;;;;;;;;;;12.50;99.90;;;;;;5076211;27;19909;-58
2022/10/13 04:10:18;;;;;;;;;;;12.50;99.90;;;;;;5029484;27;19924;-59
2022/10/13 04:12:43;;;;;;;;;;;12.50;99.90;;;;;;5081349;27;19916;-59
2022/10/13 04:15:09;;;;;;;;;;;12.50;99.90;;;;;;5025121;27;19919;-60
2022/10/13 04:17:37;;;;;;;;;;;12.60;99.90;;;;;;5085095;27;20000;-58
2022/10/13 04:20:03;;;;;;;;;;;12.50;99.90;;;;;;5033178;27;20382;-60
2022/10/13 04:22:28;;;;;;;;;;;12.60;99.90;;;;;;5087173;27;19907;-57
2022/10/13 04:24:53;;;;;;;;;;;12.60;99.90;;;;;;5023291;28;20818;-59
2022/10/13 04:27:22;;;;;;;;;;;12.60;99.90;;;;;;5044710;27;19909;-59
2022/10/13 04:29:47;;;;;;;;;;;12.50;99.90;;;;;;5126032;27;19907;-58
2022/10/13 04:32:13;;;;;;;;;;;12.60;99.90;;;;;;5075931;27;19917;-56
2022/10/13 04:34:38;;;;;;;;;;;12.50;99.90;;;;;;5111944;27;19985;-57
2022/10/13 04:37:04;;;;;;;;;;;12.60;99.90;;;;;;5089048;27;20056;-58
2022/10/13 04:39:29;;;;;;;;;;;12.60;99.90;;;;;;5098551;27;19908;-59
2022/10/13 04:41:55;;;;;;;;;;;12.60;99.90;;;;;;5104212;27;19983;-58
2022/10/13 04:44:20;;;;;;;;;;;12.70;99.90;;;;;;5084282;27;20447;-60
2022/10/13 04:46:46;;;;;;;;;;;12.60;99.90;;;;;;5115930;27;19908;-60
2022/10/13 04:49:11;;;;;;;;;;;12.70;99.90;;;;;;5069693;27;19908;-58
2022/10/13 04:51:37;;;;;;;;;;;12.60;99.90;;;;;;5119595;27;19960;-58
2022/10/13 04:54:04;;;;;;;;;;;12.60;99.90;;;;;;5068333;27;20281;-59
2022/10/13 04:56:29;;;;;;;;;;;12.60;99.90;;;;;;5123610;27;20015;-57
2022/10/13 04:58:55;;;;;;;;;;;12.60;99.90;;;;;;5063263;27;19911;-57
2022/10/13 05:01:22;;;;;;;;;;;12.60;99.90;;;;;;5126261;27;20732;-59
2022/10/13 05:03:54;;;;;;;;;;;12.60;99.90;;;;;;5059891;27;20644;-58
2022/10/13 05:06:21;;;;;;;;;;;12.60;99.90;;;;;;5126369;27;20182;-57
2022/10/13 05:08:46;;;;;;;;;;;12.60;99.90;;;;;;5060866;27;19913;-59
2022/10/13 05:11:12;;;;;;;;;;;12.60;99.90;;;;;;5125191;27;19907;-60
2022/10/13 05:13:37;;;;;;;;;;;12.60;99.90;;;;;;5073783;27;19908;-57
2022/10/13 05:16:10;;;;;;;;;;;12.60;99.90;;;;;;5111888;27;19960;-59
2022/10/13 05:18:36;;;;;;;;;;;12.60;99.90;;;;;;5082267;27;19913;-55
2022/10/13 05:21:08;;;;;;;;;;;12.60;99.90;;;;;;5028151;27;19916;-58
2022/10/13 05:23:33;;;;;;;;;;;12.60;99.90;;;;;;5056110;27;20596;-59
2022/10/13 05:26:05;;;;;;;;;;;12.60;99.90;;;;;;5052936;27;20813;-59
2022/10/13 05:28:31;;;;;;;;;;;12.60;99.90;;;;;;5046716;27;19914;-59
2022/10/13 05:30:57;;;;;;;;;;;12.60;99.90;;;;;;5062434;27;19905;-59
2022/10/13 05:33:22;;;;;;;;;;;12.60;99.90;;;;;;5032479;27;19965;-59
2022/10/13 05:35:48;;;;;;;;;;;12.60;99.90;;;;;;5075578;27;20351;-59
2022/10/13 05:38:13;;;;;;;;;;;12.70;99.90;;;;;;5028112;27;19990;-57
2022/10/13 05:40:38;;;;;;;;;;;12.70;99.90;;;;;;5103759;27;20026;-58
2022/10/13 05:43:04;;;;;;;;;;;12.70;99.90;;;;;;5042858;27;19959;-54
2022/10/13 05:45:31;;;;;;;;;;;12.70;99.90;;;;;;5082951;27;19909;-57
2022/10/13 05:47:57;;;;;;;;;;;12.70;99.90;;;;;;5021860;28;19909;-57
2022/10/13 05:50:22;;;;;;;;;;;12.70;99.90;;;;;;5086822;27;19915;-53
2022/10/13 05:52:48;;;;;;;;;;;12.80;99.90;;;;;;5020911;28;20375;-56
2022/10/13 05:55:14;;;;;;;;;;;12.80;99.90;;;;;;5082650;27;19915;-59
2022/10/13 05:57:42;;;;;;;;;;;12.80;99.90;;;;;;5022280;27;19915;-56
2022/10/13 06:00:09;;;;;;;;;;;12.80;99.90;;;;;;5069557;27;19915;-58
2022/10/13 06:02:38;;;;;;;;;;;12.80;99.90;;;;;;5034657;27;19909;-58
2022/10/13 06:05:05;;;;;;;;;;;12.90;99.90;;;;;;5059823;27;20403;-57
2022/10/13 06:07:31;;;;;;;;;;;12.90;99.90;;;;;;5044844;27;19913;-54
2022/10/13 06:09:57;;;;;;;;;;;12.90;99.90;;;;;;5047931;27;20727;-57
2022/10/13 06:12:22;;;;;;;;;;;12.90;99.90;;;;;;5057782;27;19950;-53
2022/10/13 06:14:48;;;;;;;;;;;12.90;99.90;;;;;;5033783;27;19909;-57
2022/10/13 06:17:14;;;;;;;;;;;12.90;99.90;;;;;;5070998;27;19913;-56
2022/10/13 06:19:39;;;;;;;;;;;12.90;99.90;;;;;;5025889;27;20415;-57
2022/10/13 06:22:05;;;;;;;;;;;12.90;99.90;;;;;;5077725;27;20549;-56
2022/10/13 06:24:30;;;;;;;;;;;13.00;99.90;;;;;;5026314;27;19931;-58
2022/10/13 06:26:56;;;;;;;;;;;13.00;99.90;;;;;;5080571;27;19913;-52
2022/10/13 06:29:21;;;;;;;;;;;13.00;99.90;;;;;;5019733;28;19909;-58
2022/10/13 06:31:47;;;;;;;;;;;13.00;99.90;;;;;;5085356;27;20049;-57
2022/10/13 06:34:12;;;;;;;;;;;13.00;99.90;;;;;;5021083;28;20370;-58
2022/10/13 06:36:38;;;;;;;;;;;13.00;99.90;;;;;;5083478;27;20033;-57
2022/10/13 06:39:03;;;;;;;;;;;13.00;99.90;;;;;;5049671;27;19998;-58
2022/10/13 06:41:29;;;;;;;;;;;13.10;99.90;;;;;;5115006;27;20009;-58
2022/10/13 06:43:54;;;;;;;;;;;13.10;99.90;;;;;;5123852;27;20361;-59
2022/10/13 06:46:20;;;;;;;;;;;13.10;99.90;;;;;;5089461;27;19909;-54
2022/10/13 06:48:48;;;;;;;;;;;13.10;99.90;;;;;;5094675;28;19957;-56
2022/10/13 06:51:13;;;;;;;;;;;13.10;99.90;;;;;;5102037;27;19954;-58
2022/10/13 06:53:39;;;;;;;;;;;13.20;99.90;;;;;;5082793;28;19903;-57
2022/10/13 06:56:05;;;;;;;;;;;13.20;99.90;;;;;;5116123;27;19960;-58
2022/10/13 06:58:31;;;;;;;;;;;13.20;99.90;;;;;;5069317;28;19976;-54
2022/10/13 07:00:56;;;;;;;;;;;13.20;99.90;;;;;;5117646;27;19917;-58
2022/10/13 07:03:22;;;;;;;;;;;13.20;99.90;;;;;;5065483;28;19933;-56
2022/10/13 07:05:48;;;;;;;;;;;13.20;99.90;;;;;;5123005;27;19919;-55
2022/10/13 07:08:14;;;;;;;;;;;13.20;99.90;;;;;;5061411;28;19949;-58
2022/10/13 07:10:40;;;;;;;;;;;13.30;99.90;;;;;;5124370;27;20362;-56
2022/10/13 07:13:06;;;;;;;;;;;13.30;99.90;;;;;;5058344;27;19921;-59
2022/10/13 07:15:32;;;;;;;;;;;13.30;99.90;;;;;;5053746;27;20763;-58
2022/10/13 07:17:58;;;;;;;;;;;13.30;99.90;;;;;;5080633;28;19907;-56
2022/10/13 07:20:23;;;;;;;;;;;13.30;99.90;;;;;;5024301;28;19909;-58
2022/10/13 07:22:51;;;;;;;;;;;13.40;99.90;;;;;;5038697;28;19916;-55
2022/10/13 07:25:17;;;;;;;;;;;13.30;99.90;;;;;;5109768;28;19999;-59
2022/10/13 07:27:43;;;;;;;;;;;13.30;99.90;;;;;;5089644;27;20030;-54
2022/10/13 07:30:08;;;;;;;;;;;13.30;99.90;;;;;;5093859;28;19907;-60
2022/10/13 07:32:34;;;;;;;;;;;13.40;99.90;;;;;;5102645;27;19915;-57
2022/10/13 07:34:59;;;;;;;;;;;13.40;99.90;;;;;;5046215;27;19924;-53
2022/10/13 07:37:25;;;;;;;;;;;13.40;99.90;;;;;;5042226;27;19915;-57
2022/10/13 07:39:51;;;;;;;;;;;13.40;99.90;;;;;;5069991;27;19908;-57
2022/10/13 07:42:17;;;;;;;;;;;13.50;99.90;;;;;;5120599;27;19917;-58
2022/10/13 07:44:42;;;;;;;;;;;13.50;99.90;;;;;;5070102;27;19976;-56
2022/10/13 07:47:08;;;;;;;;;;;13.50;99.90;;;;;;5126710;27;19927;-58
2022/10/13 07:49:33;;;;;;;;;;;13.50;99.90;;;;;;5063121;27;19907;-58
2022/10/13 07:51:59;;;;;;;;;;;13.50;99.90;;;;;;5128018;27;19919;-55
2022/10/13 07:54:24;;;;;;;;;;;13.50;99.90;;;;;;5060827;27;20465;-58
2022/10/13 07:56:54;;;;;;;;;;;13.60;99.90;;;;;;5128060;27;19932;-55
2022/10/13 07:59:19;;;;;;;;;;;13.60;99.90;;;;;;5067167;27;20716;-57
2022/10/13 08:01:44;;;;;;;;;;;13.60;99.90;;;;;;5121821;27;19919;-54
2022/10/13 08:04:10;;;;;;;;;;;13.60;99.90;;;;;;5081456;27;19909;-57
2022/10/13 08:06:35;;;;;;;;;;;13.60;99.90;;;;;;5107294;27;20010;-54
2022/10/13 08:09:03;;;;;;;;;;;13.60;99.90;;;;;;5095708;27;20399;-55
2022/10/13 08:11:29;;;;;;;;;;;13.60;99.90;;;;;;5095036;27;19907;-57
2022/10/13 08:13:59;;;;;;;;;;;13.70;99.90;;;;;;5107675;27;20615;-56
2022/10/13 08:16:25;;;;;;;;;;;13.80;99.90;;;;;;5003177;28;19906;-58
2022/10/13 08:18:50;;;;;;;;;;;13.80;99.90;;;;;;5035445;27;19918;-58
2022/10/13 08:21:17;;;;;;;;;;;13.90;99.90;;;;;;5069834;27;19919;-60
2022/10/13 08:23:43;;;;;;;;;;;14.00;99.90;;;;;;5119960;27;20640;-58
2022/10/13 08:26:25;;;;;;;;;;;14.00;99.90;;;;;;5068326;27;20157;-58
2022/10/13 08:28:51;;;;;;;;;;;14.10;99.90;;;;;;5120514;27;19907;-62
2022/10/13 08:31:16;;;;;;;;;;;14.10;99.90;;;;;;5068435;27;20733;-57
2022/10/13 08:33:42;;;;;;;;;;;14.10;99.90;;;;;;5124628;27;19919;-58
2022/10/13 08:36:07;;;;;;;;;;;14.20;99.90;;;;;;5059439;27;19908;-58
2022/10/13 08:38:33;;;;;;;;;;;14.20;99.90;;;;;;5037078;27;20269;-58
2022/10/13 08:40:59;;;;;;;;;;;14.30;99.90;;;;;;5086220;27;19908;-58
2022/10/13 08:43:24;;;;;;;;;;;14.30;99.90;;;;;;5022286;28;19940;-58
2022/10/13 08:45:51;;;;;;;;;;;14.30;99.90;;;;;;5080146;27;20707;-59
2022/10/13 08:48:18;;;;;;;;;;;14.30;99.90;;;;;;5028251;27;19909;-57
2022/10/13 08:50:46;;;;;;;;;;;14.30;99.90;;;;;;5067522;27;19926;-57
2022/10/13 08:53:11;;;;;;;;;;;14.30;99.90;;;;;;5039691;27;19924;-59
2022/10/13 08:55:37;;;;;;;;;;;14.30;99.90;;;;;;5055343;27;19903;-59
2022/10/13 08:58:08;;;;;;;;;;;14.20;99.90;;;;;;5053941;27;19909;-58
2022/10/13 09:00:36;;;;;;;;;;;14.20;99.90;;;;;;5046308;27;19907;-56
2022/10/13 09:03:22;;;;;;;;;;;14.30;99.90;;;;;;5061460;27;19909;-54
2022/10/13 09:05:57;;;;;;;;;;;14.30;99.90;;;;;;5046950;27;19930;-55
2022/10/13 09:08:23;;;;;;;;;;;14.30;99.90;;;;;;5053926;27;20352;-58
2022/10/13 09:10:50;;;;;;;;;;;14.40;99.90;;;;;;5041585;27;19909;-55
2022/10/13 09:13:15;;;;;;;;;;;14.50;99.90;;;;;;5066614;27;19917;-57
2022/10/13 09:15:42;;;;;;;;;;;14.50;99.90;;;;;;5032736;27;19965;-57
2022/10/13 09:18:09;;;;;;;;;;;14.60;99.90;;;;;;5056890;27;19923;-59
2022/10/13 09:20:35;;;;;;;;;;;14.70;99.90;;;;;;5118462;27;19993;-58
2022/10/13 09:23:05;;;;;;;;;;;14.80;99.90;;;;;;5068327;27;20393;-55
2022/10/13 09:25:38;;;;;;;;;;;14.90;99.90;;;;;;5121053;27;19914;-58
2022/10/13 09:28:09;;;;;;;;;;;15.00;99.90;;;;;;5077180;27;20241;-55
2022/10/13 09:30:35;;;;;;;;;;;15.10;99.90;;;;;;5022665;28;19913;-58
2022/10/13 09:33:07;;;;;;;;;;;15.20;99.90;;;;;;5085945;27;20359;-59
2022/10/13 09:35:37;;;;;;;;;;;15.30;99.90;;;;;;5004759;28;19913;-55
2022/10/13 09:38:03;;;;;;;;;;;15.40;99.90;;;;;;5086016;27;19912;-58
2022/10/13 09:40:30;;;;;;;;;;;15.40;99.90;;;;;;5021941;28;19909;-56
2022/10/13 09:42:57;;;;;;;;;;;15.50;99.90;;;;;;5087406;27;20108;-57
2022/10/13 09:45:24;;;;;;;;;;;15.60;99.90;;;;;;5021371;28;20107;-61
2022/10/13 09:47:51;;;;;;;;;;;15.60;99.90;;;;;;5076382;27;19907;-60
2022/10/13 09:50:18;;;;;;;;;;;15.70;99.90;;;;;;5030650;27;19920;-58
2022/10/13 09:52:44;;;;;;;;;;;15.70;99.90;;;;;;5063349;27;19923;-59
2022/10/13 09:55:26;;;;;;;;;;;15.80;99.90;;;;;;5042654;27;19906;-59
2022/10/13 09:57:54;;;;;;;;;;;15.90;99.90;;;;;;5062367;27;20381;-58
2022/10/13 10:00:20;;;;;;;;;;;15.90;99.90;;;;;;5043447;27;19905;-59
2022/10/13 10:02:52;;;;;;;;;;;16.00;99.90;;;;;;5050990;27;20010;-58
2022/10/13 10:05:22;;;;;;;;;;;16.00;99.90;;;;;;5052981;27;19921;-58
2022/10/13 10:07:48;;;;;;;;;;;16.10;99.90;;;;;;5044510;27;20034;-56
2022/10/13 10:10:34;;;;;;;;;;;16.10;99.90;;;;;;5062240;27;20012;-58
2022/10/13 10:13:00;;;;;;;;;;;16.20;99.90;;;;;;5045313;27;19912;-58
2022/10/13 10:15:34;;;;;;;;;;;16.20;99.90;;;;;;5116526;27;19908;-57
2022/10/13 10:18:05;;;;;;;;;;;16.20;99.90;;;;;;5107857;27;19958;-58
2022/10/13 10:20:30;;;;;;;;;;;16.20;99.90;;;;;;5080261;27;19903;-59
2022/10/13 10:23:09;;;;;;;;;;;16.20;99.90;;;;;;5117962;27;19912;-59
2022/10/13 10:25:43;;;;;;;;;;;16.20;99.90;;;;;;5068385;27;19914;-57
2022/10/13 10:28:15;;;;;;;;;;;16.20;99.90;;;;;;5114576;27;19907;-59
2022/10/13 10:31:13;;;;;;;;;;;16.20;99.90;;;;;;5073820;27;19907;-58
2022/10/13 10:33:57;;;;;;;;;;;16.20;99.90;;;;;;5066124;27;19928;-57
2022/10/13 10:36:28;;;;;;;;;;;16.20;99.90;;;;;;5096159;27;19960;-57
2022/10/13 10:39:01;;;;;;;;;;;16.20;99.90;;;;;;5098591;27;19948;-57
2022/10/13 10:41:43;;;;;;;;;;;16.20;99.90;;;;;;5090411;27;19992;-58
2022/10/13 10:44:10;;;;;;;;;;;16.20;99.90;;;;;;5094551;27;19986;-59
2022/10/13 10:46:38;;;;;;;;;;;16.20;99.90;;;;;;5090283;27;19998;-58
2022/10/13 10:49:12;;;;;;;;;;;16.20;99.90;;;;;;5105098;27;19967;-59
2022/10/13 10:51:41;;;;;;;;;;;16.20;99.90;;;;;;5022278;28;19921;-59
2022/10/13 10:54:20;;;;;;;;;;;16.20;99.90;;;;;;5034842;28;19920;-59
2022/10/13 10:56:51;;;;;;;;;;;16.30;99.90;;;;;;5061160;27;20619;-59
2022/10/13 10:59:24;;;;;;;;;;;16.30;99.90;;;;;;5034398;28;19913;-57
2022/10/13 11:02:05;;;;;;;;;;;16.40;99.90;;;;;;5067405;27;20279;-58
2022/10/13 11:04:34;;;;;;;;;;;16.40;99.90;;;;;;5036078;28;19991;-56
2022/10/13 11:07:00;;;;;;;;;;;16.30;99.90;;;;;;5067846;27;20606;-59
2022/10/13 11:09:40;;;;;;;;;;;16.30;99.90;;;;;;5027648;28;19913;-59
2022/10/13 11:12:18;;;;;;;;;;;16.20;99.90;;;;;;5065928;27;19960;-57
2022/10/13 11:14:47;;;;;;;;;;;16.10;99.90;;;;;;5102351;27;20035;-57
2022/10/13 11:17:16;;;;;;;;;;;16.00;99.90;;;;;;5094759;27;19907;-56
2022/10/13 11:19:41;;;;;;;;;;;15.80;99.90;;;;;;5122016;27;20019;-56
2022/10/13 11:22:11;;;;;;;;;;;15.70;99.90;;;;;;5070214;27;19998;-56
2022/10/13 11:24:39;;;;;;;;;;;15.70;99.90;;;;;;5121275;27;19915;-52
2022/10/13 11:27:05;;;;;;;;;;;15.60;99.90;;;;;;5070689;27;19908;-57
2022/10/13 11:29:43;;;;;;;;;;;15.50;99.90;;;;;;5127975;27;19932;-52
2022/10/13 11:32:26;;;;;;;;;;;15.40;99.90;;;;;;5068840;27;19915;-58
2022/10/13 11:35:04;;;;;;;;;;;15.40;99.90;;;;;;5122226;27;19907;-55
2022/10/13 11:37:43;;;;;;;;;;;15.30;99.90;;;;;;5078940;27;19991;-55
2022/10/13 11:40:21;;;;;;;;;;;15.20;99.90;;;;;;5030777;27;19916;-59
2022/10/13 11:43:05;;;;;;;;;;;15.20;99.90;;;;;;5082247;27;20429;-55
2022/10/13 11:45:45;;;;;;;;;;;15.20;99.90;;;;;;5029884;27;19938;-57
2022/10/13 11:48:29;;;;;;;;;;;15.20;99.90;;;;;;5062425;27;19950;-55
2022/10/13 11:51:08;;;;;;;;;;;15.20;99.90;;;;;;5118975;27;20242;-56
2022/10/13 11:53:53;;;;;;;;;;;15.10;99.90;;;;;;5081871;27;19912;-52
2022/10/13 11:56:20;;;;;;;;;;;15.10;99.90;;;;;;5096181;27;19925;-56
2022/10/13 11:58:46;;;;;;;;;;;15.10;99.90;;;;;;5082731;27;19949;-56
2022/10/13 12:01:13;;;;;;;;;;;15.10;99.90;;;;;;5120515;27;19934;-56
2022/10/13 12:03:40;;;;;;;;;;;15.10;99.90;;;;;;5059579;27;20447;-52
2022/10/13 12:06:06;;;;;;;;;;;15.10;99.90;;;;;;5119831;27;19919;-55
2022/10/13 12:08:32;;;;;;;;;;;15.10;99.90;;;;;;5068985;27;20334;-55
2022/10/13 12:11:01;;;;;;;;;;;15.00;99.90;;;;;;5125226;27;20433;-56
2022/10/13 12:13:28;;;;;;;;;;;14.90;99.90;;;;;;5064805;27;20726;-55
2022/10/13 12:15:58;;;;;;;;;;;14.90;99.90;;;;;;5058543;27;20418;-56
2022/10/13 12:18:34;;;;;;;;;;;14.90;99.90;;;;;;5087996;27;19913;-54
2022/10/13 12:21:11;;;;;;;;;;;14.90;99.90;;;;;;5022299;28;19952;-49
2022/10/13 12:23:37;;;;;;;;;;;15.00;99.90;;;;;;5088587;27;20276;-57
2022/10/13 12:26:02;;;;;;;;;;;15.00;99.90;;;;;;5023294;28;19948;-57
2022/10/13 12:28:46;;;;;;;;;;;15.00;99.90;;;;;;5087193;27;20426;-56
2022/10/13 12:31:23;;;;;;;;;;;15.00;99.90;;;;;;5022324;28;19995;-57
2022/10/13 12:33:55;;;;;;;;;;;15.00;99.90;;;;;;5087463;27;19922;-56
2022/10/13 12:36:24;;;;;;;;;;;14.90;99.90;;;;;;5022129;28;19909;-56
2022/10/13 12:38:51;;;;;;;;;;;15.00;99.90;;;;;;5087879;27;19914;-55
2022/10/13 12:41:18;;;;;;;;;;;14.90;99.90;;;;;;5021724;28;20302;-56
2022/10/13 12:43:44;;;;;;;;;;;15.00;99.90;;;;;;5079266;27;19930;-57
2022/10/13 12:46:10;;;;;;;;;;;15.00;99.90;;;;;;5030908;27;20344;-56
2022/10/13 12:48:37;;;;;;;;;;;15.00;99.90;;;;;;5064660;27;19984;-56
2022/10/13 12:51:16;;;;;;;;;;;15.00;99.90;;;;;;5044522;27;19959;-56
2022/10/13 12:53:41;;;;;;;;;;;15.00;99.90;;;;;;5062592;27;19968;-53
2022/10/13 12:56:16;;;;;;;;;;;15.00;99.90;;;;;;5047472;27;19913;-56
2022/10/13 12:58:42;;;;;;;;;;;15.00;99.90;;;;;;5054709;27;19909;-55
2022/10/13 13:01:10;;;;;;;;;;;15.00;99.90;;;;;;5055365;27;20020;-54
2022/10/13 13:03:37;;;;;;;;;;;15.00;99.90;;;;;;5042309;27;20000;-51
2022/10/13 13:06:29;;;;;;;;;;;14.90;99.90;;;;;;5066548;27;19921;-57
2022/10/13 13:09:13;;;;;;;;;;;15.00;99.90;;;;;;5045797;27;19941;-54
2022/10/13 13:11:38;;;;;;;;;;;15.00;99.90;;;;;;5047449;27;19913;-51
2022/10/13 13:14:24;;;;;;;;;;;15.00;99.90;;;;;;5047835;27;19913;-55
2022/10/13 13:17:06;;;;;;;;;;;15.00;99.90;;;;;;5002617;28;19910;-52
2022/10/13 13:19:32;;;;;;;;;;;15.00;99.90;;;;;;5052182;27;19910;-55
2022/10/13 13:21:58;;;;;;;;;;;15.10;99.90;;;;;;5048685;27;19916;-57
2022/10/13 13:24:23;;;;;;;;;;;15.10;99.90;;;;;;5045847;27;19907;-55
2022/10/13 13:26:49;;;;;;;;;;;15.10;99.90;;;;;;5063014;27;20317;-57
2022/10/13 13:29:14;;;;;;;;;;;15.10;99.90;;;;;;5032281;27;19909;-53
2022/10/13 13:31:40;;;;;;;;;;;15.10;99.90;;;;;;5075393;27;19959;-54
2022/10/13 13:34:05;;;;;;;;;;;15.20;99.90;;;;;;5029138;27;19919;-57
2022/10/13 13:36:31;;;;;;;;;;;15.30;99.90;;;;;;5079110;27;19909;-55
2022/10/13 13:38:56;;;;;;;;;;;15.30;99.90;;;;;;5024212;27;19913;-54
2022/10/13 13:41:22;;;;;;;;;;;15.30;99.90;;;;;;5083725;27;19908;-53
2022/10/13 13:43:48;;;;;;;;;;;15.40;99.90;;;;;;5021828;28;19909;-56
2022/10/13 13:46:22;;;;;;;;;;;15.50;99.90;;;;;;5088995;27;19915;-57
2022/10/13 13:48:47;;;;;;;;;;;15.50;99.90;;;;;;5021486;28;19932;-56
2022/10/13 13:51:13;;;;;;;;;;;15.50;99.90;;;;;;5085837;27;19908;-57
2022/10/13 13:53:39;;;;;;;;;;;15.50;99.90;;;;;;5023250;28;20371;-56
2022/10/13 13:56:04;;;;;;;;;;;15.50;99.90;;;;;;5075323;27;20377;-57
2022/10/13 13:58:30;;;;;;;;;;;15.60;99.90;;;;;;5033280;27;20533;-48
2022/10/13 14:00:57;;;;;;;;;;;15.60;99.90;;;;;;5061195;27;19929;-53
2022/10/13 14:03:22;;;;;;;;;;;15.50;99.90;;;;;;5046221;27;20016;-50
2022/10/13 14:05:48;;;;;;;;;;;15.50;99.90;;;;;;5047563;27;20005;-54
2022/10/13 14:08:13;;;;;;;;;;;15.50;99.90;;;;;;5060125;27;19908;-53
2022/10/13 14:10:39;;;;;;;;;;;15.40;99.90;;;;;;5055000;27;20442;-51
2022/10/13 14:13:04;;;;;;;;;;;15.40;99.90;;;;;;5071947;27;19915;-55
2022/10/13 14:15:30;;;;;;;;;;;15.40;99.90;;;;;;5100742;27;19908;-55
2022/10/13 14:17:56;;;;;;;;;;;15.40;99.90;;;;;;5079412;27;19989;-56
2022/10/13 14:20:21;;;;;;;;;;;15.40;99.90;;;;;;5024032;27;19915;-57
2022/10/13 14:22:47;;;;;;;;;;;15.40;99.90;;;;;;5081488;27;19956;-55